Francistown, Botswana
Current Conditions -  °F | °C
As of 8:00 PM on Monday 20 Oct 2014 (Local Time) from FBFT Reporting Station
Clear Clear  
Wind Chill: 75°   Ceiling: Unl
Heat Index: 75°   Visibility: 6mi
Dew Point: 30°   Wind: 7mph
Humidity: 19%   Direction: 120°ESE
Pressure: 30.09"   Gusts: NA
Location:  21.17°S, 27.5°E
Report Text: FBFT 201800Z 12006KT CAVOK 24/M01 Q1019
Loading
Personal Weather Stations






























Interactive Weather Map
Tropical Storm Tracking
New forecast layout! Learn more

10-Day Weather Forecast

Advertisements
Track Severe Weather on mobile